sensor_id;sensor_type;location;lat;lon;timestamp;temperature;humidity
69533;DHT22;56729;52.036;5.332;2024-02-04T00:00:41;10.60;99.90
69533;DHT22;56729;52.036;5.332;2024-02-04T00:01:44;10.60;99.90
69533;DHT22;56729;52.036;5.332;2024-02-04T00:02:46;10.60;99.90
69533;DHT22;56729;52.036;5.332;2024-02-04T00:03:48;10.60;99.90
69533;DHT22;56729;52.036;5.332;2024-02-04T00:04:54;10.60;99.90
69533;DHT22;56729;52.036;5.332;2024-02-04T00:05:56;10.60;99.90
69533;DHT22;56729;52.036;5.332;2024-02-04T00:06:58;10.60;99.90
69533;DHT22;56729;52.036;5.332;2024-02-04T00:08:00;10.60;99.90
69533;DHT22;56729;52.036;5.332;2024-02-04T00:09:03;10.60;99.90
69533;DHT22;56729;52.036;5.332;2024-02-04T00:10:06;10.60;99.90
69533;DHT22;56729;52.036;5.332;2024-02-04T00:11:08;10.60;99.90
69533;DHT22;56729;52.036;5.332;2024-02-04T00:12:13;10.60;99.90
69533;DHT22;56729;52.036;5.332;2024-02-04T00:13:15;10.60;99.90
69533;DHT22;56729;52.036;5.332;2024-02-04T00:14:17;10.60;99.90
69533;DHT22;56729;52.036;5.332;2024-02-04T00:15:19;10.60;99.90
69533;DHT22;56729;52.036;5.332;2024-02-04T00:16:21;10.60;99.90
69533;DHT22;56729;52.036;5.332;2024-02-04T00:17:23;10.60;99.90
69533;DHT22;56729;52.036;5.332;2024-02-04T00:18:31;10.60;99.90
69533;DHT22;56729;52.036;5.332;2024-02-04T00:19:34;10.60;99.90
69533;DHT22;56729;52.036;5.332;2024-02-04T00:20:36;10.60;99.90
69533;DHT22;56729;52.036;5.332;2024-02-04T00:21:38;10.60;99.90
69533;DHT22;56729;52.036;5.332;2024-02-04T00:22:41;10.60;99.90
69533;DHT22;56729;52.036;5.332;2024-02-04T00:23:42;10.60;99.90
69533;DHT22;56729;52.036;5.332;2024-02-04T00:24:45;10.60;99.90
69533;DHT22;56729;52.036;5.332;2024-02-04T00:25:47;10.60;99.90
69533;DHT22;56729;52.036;5.332;2024-02-04T00:26:49;10.60;99.90
69533;DHT22;56729;52.036;5.332;2024-02-04T00:27:51;10.60;99.90
69533;DHT22;56729;52.036;5.332;2024-02-04T00:28:53;10.60;99.90
69533;DHT22;56729;52.036;5.332;2024-02-04T00:29:55;10.60;99.90
69533;DHT22;56729;52.036;5.332;2024-02-04T00:30:57;10.60;99.90
69533;DHT22;56729;52.036;5.332;2024-02-04T00:32:01;10.60;99.90
69533;DHT22;56729;52.036;5.332;2024-02-04T00:33:04;10.70;99.90
69533;DHT22;56729;52.036;5.332;2024-02-04T00:34:06;10.70;99.90
69533;DHT22;56729;52.036;5.332;2024-02-04T00:35:08;10.70;99.90
69533;DHT22;56729;52.036;5.332;2024-02-04T00:36:10;10.70;99.90
69533;DHT22;56729;52.036;5.332;2024-02-04T00:37:12;10.70;99.90
69533;DHT22;56729;52.036;5.332;2024-02-04T00:38:14;10.70;99.90
69533;DHT22;56729;52.036;5.332;2024-02-04T00:39:16;10.70;99.90
69533;DHT22;56729;52.036;5.332;2024-02-04T00:40:18;10.70;99.90
69533;DHT22;56729;52.036;5.332;2024-02-04T00:41:20;10.70;99.90
69533;DHT22;56729;52.036;5.332;2024-02-04T00:42:22;10.70;99.90
69533;DHT22;56729;52.036;5.332;2024-02-04T00:43:24;10.70;99.90
69533;DHT22;56729;52.036;5.332;2024-02-04T00:44:27;10.70;99.90
69533;DHT22;56729;52.036;5.332;2024-02-04T00:45:29;10.70;99.90
69533;DHT22;56729;52.036;5.332;2024-02-04T00:46:31;10.70;99.90
69533;DHT22;56729;52.036;5.332;2024-02-04T00:47:33;10.80;99.90
69533;DHT22;56729;52.036;5.332;2024-02-04T00:48:35;10.80;99.90
69533;DHT22;56729;52.036;5.332;2024-02-04T00:49:37;10.80;99.90
69533;DHT22;56729;52.036;5.332;2024-02-04T00:50:39;10.80;99.90
69533;DHT22;56729;52.036;5.332;2024-02-04T00:51:41;10.80;99.90
69533;DHT22;56729;52.036;5.332;2024-02-04T00:52:43;10.80;99.90
69533;DHT22;56729;52.036;5.332;2024-02-04T00:53:46;10.80;99.90
69533;DHT22;56729;52.036;5.332;2024-02-04T00:54:48;10.80;99.90
69533;DHT22;56729;52.036;5.332;2024-02-04T00:55:50;10.80;99.90
69533;DHT22;56729;52.036;5.332;2024-02-04T00:56:52;10.80;99.90
69533;DHT22;56729;52.036;5.332;2024-02-04T00:57:54;10.80;99.90
69533;DHT22;56729;52.036;5.332;2024-02-04T00:58:57;10.80;99.90
69533;DHT22;56729;52.036;5.332;2024-02-04T01:00:02;10.80;99.90
69533;DHT22;56729;52.036;5.332;2024-02-04T01:01:05;10.80;99.90
69533;DHT22;56729;52.036;5.332;2024-02-04T01:02:07;10.80;99.90
69533;DHT22;56729;52.036;5.332;2024-02-04T01:03:09;10.80;99.90
69533;DHT22;56729;52.036;5.332;2024-02-04T01:04:12;10.80;99.90
69533;DHT22;56729;52.036;5.332;2024-02-04T01:05:14;10.80;99.90
69533;DHT22;56729;52.036;5.332;2024-02-04T01:06:17;10.80;99.90
69533;DHT22;56729;52.036;5.332;2024-02-04T01:07:19;10.80;99.90
69533;DHT22;56729;52.036;5.332;2024-02-04T01:08:21;10.80;99.90
69533;DHT22;56729;52.036;5.332;2024-02-04T01:09:23;10.70;99.90
69533;DHT22;56729;52.036;5.332;2024-02-04T01:10:25;10.80;99.90
69533;DHT22;56729;52.036;5.332;2024-02-04T01:11:27;10.80;99.90
69533;DHT22;56729;52.036;5.332;2024-02-04T01:12:31;10.80;99.90
69533;DHT22;56729;52.036;5.332;2024-02-04T01:13:33;10.80;99.90
69533;DHT22;56729;52.036;5.332;2024-02-04T01:14:35;10.80;99.90
69533;DHT22;56729;52.036;5.332;2024-02-04T01:15:37;10.70;99.90
69533;DHT22;56729;52.036;5.332;2024-02-04T01:16:39;10.80;99.90
69533;DHT22;56729;52.036;5.332;2024-02-04T01:17:41;10.80;99.90
69533;DHT22;56729;52.036;5.332;2024-02-04T01:18:43;10.70;99.90
69533;DHT22;56729;52.036;5.332;2024-02-04T01:19:45;10.70;99.90
69533;DHT22;56729;52.036;5.332;2024-02-04T01:20:47;10.70;99.90
69533;DHT22;56729;52.036;5.332;2024-02-04T01:21:49;10.70;99.90
69533;DHT22;56729;52.036;5.332;2024-02-04T01:22:52;10.70;99.90
69533;DHT22;56729;52.036;5.332;2024-02-04T01:23:54;10.70;99.90
69533;DHT22;56729;52.036;5.332;2024-02-04T01:24:59;10.70;99.90
69533;DHT22;56729;52.036;5.332;2024-02-04T01:26:01;10.70;99.90
69533;DHT22;56729;52.036;5.332;2024-02-04T01:27:03;10.70;99.90
69533;DHT22;56729;52.036;5.332;2024-02-04T01:28:05;10.70;99.90
69533;DHT22;56729;52.036;5.332;2024-02-04T01:29:08;10.70;99.90
69533;DHT22;56729;52.036;5.332;2024-02-04T01:30:11;10.80;99.90
69533;DHT22;56729;52.036;5.332;2024-02-04T01:31:13;10.70;99.90
69533;DHT22;56729;52.036;5.332;2024-02-04T01:32:15;10.70;99.90
69533;DHT22;56729;52.036;5.332;2024-02-04T01:33:17;10.70;99.90
69533;DHT22;56729;52.036;5.332;2024-02-04T01:34:20;10.70;99.90
69533;DHT22;56729;52.036;5.332;2024-02-04T01:35:22;10.70;99.90
69533;DHT22;56729;52.036;5.332;2024-02-04T01:36:24;10.70;99.90
69533;DHT22;56729;52.036;5.332;2024-02-04T01:37:26;10.70;99.90
69533;DHT22;56729;52.036;5.332;2024-02-04T01:38:28;10.70;99.90
69533;DHT22;56729;52.036;5.332;2024-02-04T01:39:30;10.70;99.90
69533;DHT22;56729;52.036;5.332;2024-02-04T01:40:33;10.70;99.90
69533;DHT22;56729;52.036;5.332;2024-02-04T01:41:35;10.70;99.90
69533;DHT22;56729;52.036;5.332;2024-02-04T01:42:37;10.70;99.90
69533;DHT22;56729;52.036;5.332;2024-02-04T01:43:39;10.70;99.90
69533;DHT22;56729;52.036;5.332;2024-02-04T01:44:41;10.70;99.90
69533;DHT22;56729;52.036;5.332;2024-02-04T01:45:44;10.70;99.90
69533;DHT22;56729;52.036;5.332;2024-02-04T01:46:47;10.70;99.90
69533;DHT22;56729;52.036;5.332;2024-02-04T01:47:50;10.70;99.90
69533;DHT22;56729;52.036;5.332;2024-02-04T01:48:52;10.70;99.90
69533;DHT22;56729;52.036;5.332;2024-02-04T01:49:54;10.70;99.90
69533;DHT22;56729;52.036;5.332;2024-02-04T01:50:58;10.70;99.90
69533;DHT22;56729;52.036;5.332;2024-02-04T01:52:01;10.70;99.90
69533;DHT22;56729;52.036;5.332;2024-02-04T01:53:04;10.70;99.90
69533;DHT22;56729;52.036;5.332;2024-02-04T01:54:07;10.70;99.90
69533;DHT22;56729;52.036;5.332;2024-02-04T01:55:10;10.70;99.90
69533;DHT22;56729;52.036;5.332;2024-02-04T01:56:13;10.70;99.90
69533;DHT22;56729;52.036;5.332;2024-02-04T01:57:16;10.70;99.90
69533;DHT22;56729;52.036;5.332;2024-02-04T01:58:18;10.70;99.90
69533;DHT22;56729;52.036;5.332;2024-02-04T01:59:23;10.70;99.90
69533;DHT22;56729;52.036;5.332;2024-02-04T02:00:30;10.70;99.90
69533;DHT22;56729;52.036;5.332;2024-02-04T02:01:33;10.70;99.90
69533;DHT22;56729;52.036;5.332;2024-02-04T02:02:40;10.70;99.90
69533;DHT22;56729;52.036;5.332;2024-02-04T02:03:42;10.60;99.90
69533;DHT22;56729;52.036;5.332;2024-02-04T02:04:46;10.60;99.90
69533;DHT22;56729;52.036;5.332;2024-02-04T02:05:49;10.60;99.90
69533;DHT22;56729;52.036;5.332;2024-02-04T02:06:54;10.60;99.90
69533;DHT22;56729;52.036;5.332;2024-02-04T02:07:57;10.60;99.90
69533;DHT22;56729;52.036;5.332;2024-02-04T02:09:01;10.60;99.90
69533;DHT22;56729;52.036;5.332;2024-02-04T02:10:05;10.60;99.90
69533;DHT22;56729;52.036;5.332;2024-02-04T02:11:13;10.60;99.90
69533;DHT22;56729;52.036;5.332;2024-02-04T02:12:22;10.60;99.90
69533;DHT22;56729;52.036;5.332;2024-02-04T02:13:28;10.60;99.90
69533;DHT22;56729;52.036;5.332;2024-02-04T02:14:33;10.60;99.90
69533;DHT22;56729;52.036;5.332;2024-02-04T02:15:43;10.60;99.90
69533;DHT22;56729;52.036;5.332;2024-02-04T02:16:46;10.60;99.90
69533;DHT22;56729;52.036;5.332;2024-02-04T02:18:20;10.60;99.90
69533;DHT22;56729;52.036;5.332;2024-02-04T02:21:08;10.60;99.90
69533;DHT22;56729;52.036;5.332;2024-02-04T02:25:02;10.60;99.90
69533;DHT22;56729;52.036;5.332;2024-02-04T02:26:07;10.50;99.90
69533;DHT22;56729;52.036;5.332;2024-02-04T02:27:09;10.50;99.90
69533;DHT22;56729;52.036;5.332;2024-02-04T02:28:11;10.50;99.90
69533;DHT22;56729;52.036;5.332;2024-02-04T02:29:14;10.60;99.90
69533;DHT22;56729;52.036;5.332;2024-02-04T02:30:17;10.50;99.90
69533;DHT22;56729;52.036;5.332;2024-02-04T02:31:20;10.60;99.90
69533;DHT22;56729;52.036;5.332;2024-02-04T02:32:35;10.60;99.90
69533;DHT22;56729;52.036;5.332;2024-02-04T02:33:38;10.60;99.90
69533;DHT22;56729;52.036;5.332;2024-02-04T02:34:40;10.50;99.90
69533;DHT22;56729;52.036;5.332;2024-02-04T02:35:46;10.60;99.90
69533;DHT22;56729;52.036;5.332;2024-02-04T02:36:57;10.60;99.90
69533;DHT22;56729;52.036;5.332;2024-02-04T02:40:10;10.60;99.90
69533;DHT22;56729;52.036;5.332;2024-02-04T02:41:10;10.60;99.90
69533;DHT22;56729;52.036;5.332;2024-02-04T02:42:15;10.60;99.90
69533;DHT22;56729;52.036;5.332;2024-02-04T02:43:18;10.60;99.90
69533;DHT22;56729;52.036;5.332;2024-02-04T02:44:20;10.50;99.90
69533;DHT22;56729;52.036;5.332;2024-02-04T02:45:24;10.60;99.90
69533;DHT22;56729;52.036;5.332;2024-02-04T02:46:28;10.60;99.90
69533;DHT22;56729;52.036;5.332;2024-02-04T02:47:30;10.60;99.90
69533;DHT22;56729;52.036;5.332;2024-02-04T02:48:34;10.60;99.90
69533;DHT22;56729;52.036;5.332;2024-02-04T02:49:36;10.60;99.90
69533;DHT22;56729;52.036;5.332;2024-02-04T02:50:38;10.60;99.90
69533;DHT22;56729;52.036;5.332;2024-02-04T02:51:40;10.60;99.90
69533;DHT22;56729;52.036;5.332;2024-02-04T02:52:42;10.60;99.90
69533;DHT22;56729;52.036;5.332;2024-02-04T02:53:44;10.60;99.90
69533;DHT22;56729;52.036;5.332;2024-02-04T02:54:46;10.60;99.90
69533;DHT22;56729;52.036;5.332;2024-02-04T02:55:48;10.60;99.90
69533;DHT22;56729;52.036;5.332;2024-02-04T02:56:51;10.60;99.90
69533;DHT22;56729;52.036;5.332;2024-02-04T02:57:53;10.60;99.90
69533;DHT22;56729;52.036;5.332;2024-02-04T02:58:55;10.60;99.90
69533;DHT22;56729;52.036;5.332;2024-02-04T02:59:57;10.60;99.90
69533;DHT22;56729;52.036;5.332;2024-02-04T03:01:01;10.60;99.90
69533;DHT22;56729;52.036;5.332;2024-02-04T03:02:04;10.60;99.90
69533;DHT22;56729;52.036;5.332;2024-02-04T03:03:06;10.60;99.90
69533;DHT22;56729;52.036;5.332;2024-02-04T03:04:08;10.60;99.90
69533;DHT22;56729;52.036;5.332;2024-02-04T03:05:11;10.50;99.90
69533;DHT22;56729;52.036;5.332;2024-02-04T03:06:13;10.50;99.90
69533;DHT22;56729;52.036;5.332;2024-02-04T03:07:15;10.50;99.90
69533;DHT22;56729;52.036;5.332;2024-02-04T03:08:17;10.50;99.90
69533;DHT22;56729;52.036;5.332;2024-02-04T03:09:20;10.50;99.90
69533;DHT22;56729;52.036;5.332;2024-02-04T03:10:23;10.50;99.90
69533;DHT22;56729;52.036;5.332;2024-02-04T03:11:25;10.50;99.90
69533;DHT22;56729;52.036;5.332;2024-02-04T03:12:27;10.50;99.90
69533;DHT22;56729;52.036;5.332;2024-02-04T03:13:29;10.50;99.90
69533;DHT22;56729;52.036;5.332;2024-02-04T03:14:32;10.50;99.90
69533;DHT22;56729;52.036;5.332;2024-02-04T03:15:35;10.50;99.90
69533;DHT22;56729;52.036;5.332;2024-02-04T03:16:37;10.50;99.90
69533;DHT22;56729;52.036;5.332;2024-02-04T03:17:40;10.40;99.90
69533;DHT22;56729;52.036;5.332;2024-02-04T03:18:43;10.40;99.90
69533;DHT22;56729;52.036;5.332;2024-02-04T03:19:45;10.40;99.90
69533;DHT22;56729;52.036;5.332;2024-02-04T03:20:49;10.40;99.90
69533;DHT22;56729;52.036;5.332;2024-02-04T03:21:51;10.40;99.90
69533;DHT22;56729;52.036;5.332;2024-02-04T03:22:55;10.40;99.90
69533;DHT22;56729;52.036;5.332;2024-02-04T03:23:57;10.40;99.90
69533;DHT22;56729;52.036;5.332;2024-02-04T03:25:00;10.40;99.90
69533;DHT22;56729;52.036;5.332;2024-02-04T03:26:02;10.40;99.90
69533;DHT22;56729;52.036;5.332;2024-02-04T03:27:04;10.30;99.90
69533;DHT22;56729;52.036;5.332;2024-02-04T03:28:08;10.30;99.90
69533;DHT22;56729;52.036;5.332;2024-02-04T03:29:10;10.30;99.90
69533;DHT22;56729;52.036;5.332;2024-02-04T03:30:12;10.30;99.90
69533;DHT22;56729;52.036;5.332;2024-02-04T03:31:23;10.30;99.90
69533;DHT22;56729;52.036;5.332;2024-02-04T03:32:26;10.30;99.90
69533;DHT22;56729;52.036;5.332;2024-02-04T03:33:28;10.30;99.90
69533;DHT22;56729;52.036;5.332;2024-02-04T03:34:31;10.30;99.90
69533;DHT22;56729;52.036;5.332;2024-02-04T03:35:33;10.30;99.90
69533;DHT22;56729;52.036;5.332;2024-02-04T03:36:38;10.30;99.90
69533;DHT22;56729;52.036;5.332;2024-02-04T03:37:40;10.30;99.90
69533;DHT22;56729;52.036;5.332;2024-02-04T03:38:42;10.30;99.90
69533;DHT22;56729;52.036;5.332;2024-02-04T03:39:44;10.30;99.90
69533;DHT22;56729;52.036;5.332;2024-02-04T03:40:47;10.30;99.90
69533;DHT22;56729;52.036;5.332;2024-02-04T03:41:51;10.30;99.90
69533;DHT22;56729;52.036;5.332;2024-02-04T03:42:54;10.30;99.90
69533;DHT22;56729;52.036;5.332;2024-02-04T03:43:56;10.30;99.90
69533;DHT22;56729;52.036;5.332;2024-02-04T03:45:01;10.30;99.90
69533;DHT22;56729;52.036;5.332;2024-02-04T03:46:05;10.30;99.90
69533;DHT22;56729;52.036;5.332;2024-02-04T03:47:06;10.30;99.90
69533;DHT22;56729;52.036;5.332;2024-02-04T03:48:09;10.30;99.90
69533;DHT22;56729;52.036;5.332;2024-02-04T03:49:11;10.20;99.90
69533;DHT22;56729;52.036;5.332;2024-02-04T03:50:13;10.30;99.90
69533;DHT22;56729;52.036;5.332;2024-02-04T03:51:18;10.30;99.90
69533;DHT22;56729;52.036;5.332;2024-02-04T03:52:22;10.30;99.90
69533;DHT22;56729;52.036;5.332;2024-02-04T03:53:24;10.30;99.90
69533;DHT22;56729;52.036;5.332;2024-02-04T03:54:27;10.20;99.90
69533;DHT22;56729;52.036;5.332;2024-02-04T03:55:31;10.30;99.90
69533;DHT22;56729;52.036;5.332;2024-02-04T03:56:33;10.30;99.90
69533;DHT22;56729;52.036;5.332;2024-02-04T03:57:35;10.30;99.90
69533;DHT22;56729;52.036;5.332;2024-02-04T03:58:37;10.20;99.90
69533;DHT22;56729;52.036;5.332;2024-02-04T03:59:39;10.30;99.90
69533;DHT22;56729;52.036;5.332;2024-02-04T04:00:41;10.20;99.90
69533;DHT22;56729;52.036;5.332;2024-02-04T04:01:50;10.30;99.90
69533;DHT22;56729;52.036;5.332;2024-02-04T04:02:52;10.30;99.90
69533;DHT22;56729;52.036;5.332;2024-02-04T04:03:54;10.20;99.90
69533;DHT22;56729;52.036;5.332;2024-02-04T04:04:57;10.20;99.90
69533;DHT22;56729;52.036;5.332;2024-02-04T04:05:59;10.20;99.90
69533;DHT22;56729;52.036;5.332;2024-02-04T04:07:01;10.20;99.90
69533;DHT22;56729;52.036;5.332;2024-02-04T04:08:03;10.30;99.90
69533;DHT22;56729;52.036;5.332;2024-02-04T04:09:05;10.30;99.90
69533;DHT22;56729;52.036;5.332;2024-02-04T04:10:08;10.30;99.90
69533;DHT22;56729;52.036;5.332;2024-02-04T04:11:10;10.20;99.90
69533;DHT22;56729;52.036;5.332;2024-02-04T04:12:13;10.20;99.90
69533;DHT22;56729;52.036;5.332;2024-02-04T04:13:15;10.20;99.90
69533;DHT22;56729;52.036;5.332;2024-02-04T04:14:17;10.20;99.90
69533;DHT22;56729;52.036;5.332;2024-02-04T04:15:19;10.20;99.90
69533;DHT22;56729;52.036;5.332;2024-02-04T04:16:21;10.20;99.90
69533;DHT22;56729;52.036;5.332;2024-02-04T04:17:24;10.20;99.90
69533;DHT22;56729;52.036;5.332;2024-02-04T04:18:26;10.20;99.90
69533;DHT22;56729;52.036;5.332;2024-02-04T04:19:28;10.20;99.90
69533;DHT22;56729;52.036;5.332;2024-02-04T04:20:30;10.20;99.90
69533;DHT22;56729;52.036;5.332;2024-02-04T04:21:32;10.20;99.90
69533;DHT22;56729;52.036;5.332;2024-02-04T04:22:34;10.20;99.90
69533;DHT22;56729;52.036;5.332;2024-02-04T04:23:36;10.20;99.90
69533;DHT22;56729;52.036;5.332;2024-02-04T04:24:38;10.20;99.90
69533;DHT22;56729;52.036;5.332;2024-02-04T04:25:42;10.20;99.90
69533;DHT22;56729;52.036;5.332;2024-02-04T04:26:46;10.20;99.90
69533;DHT22;56729;52.036;5.332;2024-02-04T04:27:48;10.20;99.90
69533;DHT22;56729;52.036;5.332;2024-02-04T04:28:50;10.20;99.90
69533;DHT22;56729;52.036;5.332;2024-02-04T04:29:52;10.20;99.90
69533;DHT22;56729;52.036;5.332;2024-02-04T04:30:54;10.10;99.90
69533;DHT22;56729;52.036;5.332;2024-02-04T04:31:56;10.10;99.90
69533;DHT22;56729;52.036;5.332;2024-02-04T04:32:58;10.10;99.90
69533;DHT22;56729;52.036;5.332;2024-02-04T04:34:01;10.10;99.90
69533;DHT22;56729;52.036;5.332;2024-02-04T04:35:03;10.10;99.90
69533;DHT22;56729;52.036;5.332;2024-02-04T04:36:06;10.10;99.90
69533;DHT22;56729;52.036;5.332;2024-02-04T04:37:08;10.00;99.90
69533;DHT22;56729;52.036;5.332;2024-02-04T04:38:10;10.00;99.90
69533;DHT22;56729;52.036;5.332;2024-02-04T04:39:12;10.00;99.90
69533;DHT22;56729;52.036;5.332;2024-02-04T04:40:14;10.00;99.90
69533;DHT22;56729;52.036;5.332;2024-02-04T04:41:16;10.00;99.90
69533;DHT22;56729;52.036;5.332;2024-02-04T04:42:18;10.00;99.90
69533;DHT22;56729;52.036;5.332;2024-02-04T04:43:20;10.00;99.90
69533;DHT22;56729;52.036;5.332;2024-02-04T04:44:22;10.00;99.90
69533;DHT22;56729;52.036;5.332;2024-02-04T04:45:24;10.00;99.90
69533;DHT22;56729;52.036;5.332;2024-02-04T04:46:26;10.00;99.90
69533;DHT22;56729;52.036;5.332;2024-02-04T04:47:29;10.00;99.90
69533;DHT22;56729;52.036;5.332;2024-02-04T04:48:31;10.00;99.90
69533;DHT22;56729;52.036;5.332;2024-02-04T04:49:33;10.00;99.90
69533;DHT22;56729;52.036;5.332;2024-02-04T04:50:35;10.00;99.90
69533;DHT22;56729;52.036;5.332;2024-02-04T04:51:37;10.00;99.90
69533;DHT22;56729;52.036;5.332;2024-02-04T04:52:39;10.00;99.90
69533;DHT22;56729;52.036;5.332;2024-02-04T04:53:41;10.00;99.90
69533;DHT22;56729;52.036;5.332;2024-02-04T04:54:43;10.00;99.90
69533;DHT22;56729;52.036;5.332;2024-02-04T04:55:45;10.00;99.90
69533;DHT22;56729;52.036;5.332;2024-02-04T04:56:47;10.00;99.90
69533;DHT22;56729;52.036;5.332;2024-02-04T04:57:49;10.00;99.90
69533;DHT22;56729;52.036;5.332;2024-02-04T04:58:53;10.00;99.90
69533;DHT22;56729;52.036;5.332;2024-02-04T04:59:55;10.00;99.90
69533;DHT22;56729;52.036;5.332;2024-02-04T05:01:00;10.00;99.90
69533;DHT22;56729;52.036;5.332;2024-02-04T05:02:02;10.00;99.90
69533;DHT22;56729;52.036;5.332;2024-02-04T05:03:05;10.00;99.90
69533;DHT22;56729;52.036;5.332;2024-02-04T05:04:07;9.90;99.90
69533;DHT22;56729;52.036;5.332;2024-02-04T05:05:14;9.90;99.90
69533;DHT22;56729;52.036;5.332;2024-02-04T05:06:16;10.00;99.90
69533;DHT22;56729;52.036;5.332;2024-02-04T05:07:18;10.00;99.90
69533;DHT22;56729;52.036;5.332;2024-02-04T05:08:20;10.00;99.90
69533;DHT22;56729;52.036;5.332;2024-02-04T05:09:22;10.00;99.90
69533;DHT22;56729;52.036;5.332;2024-02-04T05:10:24;10.00;99.90
69533;DHT22;56729;52.036;5.332;2024-02-04T05:11:26;10.00;99.90
69533;DHT22;56729;52.036;5.332;2024-02-04T05:12:28;10.00;99.90
69533;DHT22;56729;52.036;5.332;2024-02-04T05:13:30;10.00;99.90
69533;DHT22;56729;52.036;5.332;2024-02-04T05:14:32;10.00;99.90
69533;DHT22;56729;52.036;5.332;2024-02-04T05:15:34;10.00;99.90
69533;DHT22;56729;52.036;5.332;2024-02-04T05:16:37;10.00;99.90
69533;DHT22;56729;52.036;5.332;2024-02-04T05:17:39;10.00;99.90
69533;DHT22;56729;52.036;5.332;2024-02-04T05:18:41;10.00;99.90
69533;DHT22;56729;52.036;5.332;2024-02-04T05:19:43;10.00;99.90
69533;DHT22;56729;52.036;5.332;2024-02-04T05:20:45;10.00;99.90
69533;DHT22;56729;52.036;5.332;2024-02-04T05:21:47;10.00;99.90
69533;DHT22;56729;52.036;5.332;2024-02-04T05:22:49;10.00;99.90
69533;DHT22;56729;52.036;5.332;2024-02-04T05:23:51;10.00;99.90
69533;DHT22;56729;52.036;5.332;2024-02-04T05:24:54;10.00;99.90
69533;DHT22;56729;52.036;5.332;2024-02-04T05:25:56;10.00;99.90
69533;DHT22;56729;52.036;5.332;2024-02-04T05:26:58;10.00;99.90
69533;DHT22;56729;52.036;5.332;2024-02-04T05:28:00;10.00;99.90
69533;DHT22;56729;52.036;5.332;2024-02-04T05:29:02;10.00;99.90
69533;DHT22;56729;52.036;5.332;2024-02-04T05:30:05;10.00;99.90
69533;DHT22;56729;52.036;5.332;2024-02-04T05:31:07;10.00;99.90
69533;DHT22;56729;52.036;5.332;2024-02-04T05:32:09;10.00;99.90
69533;DHT22;56729;52.036;5.332;2024-02-04T05:33:14;10.00;99.90
69533;DHT22;56729;52.036;5.332;2024-02-04T05:34:17;10.00;99.90
69533;DHT22;56729;52.036;5.332;2024-02-04T05:35:19;10.00;99.90
69533;DHT22;56729;52.036;5.332;2024-02-04T05:36:21;10.00;99.90
69533;DHT22;56729;52.036;5.332;2024-02-04T05:37:23;9.90;99.90
69533;DHT22;56729;52.036;5.332;2024-02-04T05:38:25;10.00;99.90
69533;DHT22;56729;52.036;5.332;2024-02-04T05:39:27;10.00;99.90
69533;DHT22;56729;52.036;5.332;2024-02-04T05:40:29;10.00;99.90
69533;DHT22;56729;52.036;5.332;2024-02-04T05:41:33;10.00;99.90
69533;DHT22;56729;52.036;5.332;2024-02-04T05:42:35;10.00;99.90
69533;DHT22;56729;52.036;5.332;2024-02-04T05:43:39;10.00;99.90
69533;DHT22;56729;52.036;5.332;2024-02-04T05:44:41;10.00;99.90
69533;DHT22;56729;52.036;5.332;2024-02-04T05:45:43;10.00;99.90
69533;DHT22;56729;52.036;5.332;2024-02-04T05:46:45;10.00;99.90
69533;DHT22;56729;52.036;5.332;2024-02-04T05:47:47;10.00;99.90
69533;DHT22;56729;52.036;5.332;2024-02-04T05:48:50;10.00;99.90
69533;DHT22;56729;52.036;5.332;2024-02-04T05:49:52;10.00;99.90
69533;DHT22;56729;52.036;5.332;2024-02-04T05:50:54;10.00;99.90
69533;DHT22;56729;52.036;5.332;2024-02-04T05:51:56;10.00;99.90
69533;DHT22;56729;52.036;5.332;2024-02-04T05:52:58;10.00;99.90
69533;DHT22;56729;52.036;5.332;2024-02-04T05:54:00;10.00;99.90
69533;DHT22;56729;52.036;5.332;2024-02-04T05:55:02;10.00;99.90
69533;DHT22;56729;52.036;5.332;2024-02-04T05:56:06;10.00;99.90
69533;DHT22;56729;52.036;5.332;2024-02-04T05:57:09;10.00;99.90
69533;DHT22;56729;52.036;5.332;2024-02-04T05:58:13;10.00;99.90
69533;DHT22;56729;52.036;5.332;2024-02-04T05:59:15;10.00;99.90
69533;DHT22;56729;52.036;5.332;2024-02-04T06:00:18;9.90;99.90
69533;DHT22;56729;52.036;5.332;2024-02-04T06:01:20;10.00;99.90
69533;DHT22;56729;52.036;5.332;2024-02-04T06:02:22;10.00;99.90
69533;DHT22;56729;52.036;5.332;2024-02-04T06:03:25;10.00;99.90
69533;DHT22;56729;52.036;5.332;2024-02-04T06:04:30;10.00;99.90
69533;DHT22;56729;52.036;5.332;2024-02-04T06:05:32;10.00;99.90
69533;DHT22;56729;52.036;5.332;2024-02-04T06:06:46;10.00;99.90
69533;DHT22;56729;52.036;5.332;2024-02-04T06:07:48;10.00;99.90
69533;DHT22;56729;52.036;5.332;2024-02-04T06:08:50;10.00;99.90
69533;DHT22;56729;52.036;5.332;2024-02-04T06:09:52;10.00;99.90
69533;DHT22;56729;52.036;5.332;2024-02-04T06:10:54;10.00;99.90
69533;DHT22;56729;52.036;5.332;2024-02-04T06:11:58;10.00;99.90
69533;DHT22;56729;52.036;5.332;2024-02-04T06:13:00;10.00;99.90
69533;DHT22;56729;52.036;5.332;2024-02-04T06:14:03;10.00;99.90
69533;DHT22;56729;52.036;5.332;2024-02-04T06:15:05;10.00;99.90
69533;DHT22;56729;52.036;5.332;2024-02-04T06:16:08;10.00;99.90
69533;DHT22;56729;52.036;5.332;2024-02-04T06:17:10;10.00;99.90
69533;DHT22;56729;52.036;5.332;2024-02-04T06:18:12;10.00;99.90
69533;DHT22;56729;52.036;5.332;2024-02-04T06:19:14;10.00;99.90
69533;DHT22;56729;52.036;5.332;2024-02-04T06:20:17;10.00;99.90
69533;DHT22;56729;52.036;5.332;2024-02-04T06:21:19;10.10;99.90
69533;DHT22;56729;52.036;5.332;2024-02-04T06:22:24;10.00;99.90
69533;DHT22;56729;52.036;5.332;2024-02-04T06:23:26;10.10;99.90
69533;DHT22;56729;52.036;5.332;2024-02-04T06:24:31;10.10;99.90
69533;DHT22;56729;52.036;5.332;2024-02-04T06:25:33;10.10;99.90
69533;DHT22;56729;52.036;5.332;2024-02-04T06:26:38;10.10;99.90
69533;DHT22;56729;52.036;5.332;2024-02-04T06:27:41;10.10;99.90
69533;DHT22;56729;52.036;5.332;2024-02-04T06:28:43;10.10;99.90
69533;DHT22;56729;52.036;5.332;2024-02-04T06:29:48;10.10;99.90
69533;DHT22;56729;52.036;5.332;2024-02-04T06:30:54;10.10;99.90
69533;DHT22;56729;52.036;5.332;2024-02-04T06:31:56;10.20;99.90
69533;DHT22;56729;52.036;5.332;2024-02-04T06:32:58;10.10;99.90
69533;DHT22;56729;52.036;5.332;2024-02-04T06:34:01;10.10;99.90
69533;DHT22;56729;52.036;5.332;2024-02-04T06:35:06;10.20;99.90
69533;DHT22;56729;52.036;5.332;2024-02-04T06:36:18;10.20;99.90
69533;DHT22;56729;52.036;5.332;2024-02-04T06:37:20;10.10;99.90
69533;DHT22;56729;52.036;5.332;2024-02-04T06:38:22;10.20;99.90
69533;DHT22;56729;52.036;5.332;2024-02-04T06:39:24;10.20;99.90
69533;DHT22;56729;52.036;5.332;2024-02-04T06:40:26;10.20;99.90
69533;DHT22;56729;52.036;5.332;2024-02-04T06:41:28;10.20;99.90
69533;DHT22;56729;52.036;5.332;2024-02-04T06:42:30;10.20;99.90
69533;DHT22;56729;52.036;5.332;2024-02-04T06:43:33;10.20;99.90